createdAt,value
2023-10-07T00:00:41.631Z,98313.66
2023-10-07T00:03:08.407Z,98312.53
2023-10-07T00:05:40.590Z,98308.28
2023-10-07T00:08:09.309Z,98302.84
2023-10-07T00:10:39.205Z,98306.97
2023-10-07T00:13:10.991Z,98304.28
2023-10-07T00:15:38.571Z,98300.91
2023-10-07T00:18:14.493Z,98302.59
2023-10-07T00:20:43.989Z,98296.91
2023-10-07T00:23:10.878Z,98298.91
2023-10-07T00:25:39.389Z,98298.63
2023-10-07T00:28:19.026Z,98293.81
2023-10-07T00:30:50.628Z,98290.94
2023-10-07T00:33:22.751Z,98288.66
2023-10-07T00:35:57.125Z,98278.75
2023-10-07T00:38:24.856Z,98283.16
2023-10-07T00:40:57.137Z,98275.34
2023-10-07T00:43:29.000Z,98270.94
2023-10-07T00:46:12.286Z,98278.19
2023-10-07T00:48:46.622Z,98269.38
2023-10-07T00:51:14.499Z,98267.09
2023-10-07T00:53:46.993Z,98265.41
2023-10-07T00:56:17.537Z,98262.00
2023-10-07T00:58:47.991Z,98260.16
2023-10-07T01:01:15.860Z,98258.16
2023-10-07T01:03:57.090Z,98254.91
2023-10-07T01:06:27.381Z,98253.91
2023-10-07T01:08:59.844Z,98256.88
2023-10-07T01:11:31.105Z,98248.06
2023-10-07T01:13:58.634Z,98243.25
2023-10-07T01:16:28.395Z,98235.31
2023-10-07T01:19:04.299Z,98238.72
2023-10-07T01:21:34.628Z,98238.44
2023-10-07T01:24:06.758Z,98240.28
2023-10-07T01:26:33.735Z,98237.59
2023-10-07T01:29:16.870Z,98246.38
2023-10-07T01:32:00.785Z,98241.69
2023-10-07T01:34:31.490Z,98244.69
2023-10-07T01:37:02.138Z,98244.94
2023-10-07T01:39:41.834Z,98241.00
2023-10-07T01:42:13.777Z,98234.06
2023-10-07T01:44:42.209Z,98237.31
2023-10-07T01:47:24.746Z,98242.16
2023-10-07T01:49:55.116Z,98236.19
2023-10-07T01:52:28.594Z,98226.25
2023-10-07T01:54:56.561Z,98229.34
2023-10-07T01:57:23.325Z,98221.13
2023-10-07T01:59:50.849Z,98225.81
2023-10-07T02:02:17.496Z,98214.63
2023-10-07T02:04:44.187Z,98224.41
2023-10-07T02:07:10.915Z,98224.53
2023-10-07T02:09:42.056Z,98222.00
2023-10-07T02:12:12.984Z,98213.75
2023-10-07T02:14:40.311Z,98222.97
2023-10-07T02:17:09.749Z,98233.03
2023-10-07T02:19:36.780Z,98228.78
2023-10-07T02:22:05.062Z,98224.50
2023-10-07T02:24:33.428Z,98223.94
2023-10-07T02:27:01.102Z,98228.44
2023-10-07T02:29:29.438Z,98225.16
2023-10-07T02:32:07.750Z,98221.13
2023-10-07T02:34:35.200Z,98223.31
2023-10-07T02:37:22.269Z,98221.34
2023-10-07T02:39:52.685Z,98219.97
2023-10-07T02:42:22.957Z,98222.53
2023-10-07T02:45:01.874Z,98218.28
2023-10-07T02:47:32.900Z,98219.13
2023-10-07T02:50:02.829Z,98214.03
2023-10-07T02:52:37.452Z,98227.50
2023-10-07T02:55:28.670Z,98216.72
2023-10-07T02:57:58.432Z,98223.91
2023-10-07T03:00:53.062Z,98219.38
2023-10-07T03:03:26.132Z,98221.78
2023-10-07T03:06:10.917Z,98215.41
2023-10-07T03:08:55.808Z,98214.28
2023-10-07T03:11:22.748Z,98222.22
2023-10-07T03:13:51.632Z,98225.03
2023-10-07T03:16:21.995Z,98225.28
2023-10-07T03:18:57.799Z,98218.78
2023-10-07T03:21:36.649Z,98212.78
2023-10-07T03:24:09.299Z,98216.63
2023-10-07T03:26:36.173Z,98212.06
2023-10-07T03:29:06.646Z,98209.59
2023-10-07T03:31:41.226Z,98209.59
2023-10-07T03:34:13.459Z,98215.16
2023-10-07T03:36:46.158Z,98213.56
2023-10-07T03:39:23.536Z,98209.69
2023-10-07T03:42:01.024Z,98209.13
2023-10-07T03:44:29.219Z,98211.69
2023-10-07T03:46:56.739Z,98219.03
2023-10-07T03:49:24.632Z,98214.50
2023-10-07T03:52:13.381Z,98224.56
2023-10-07T03:54:43.995Z,98214.41
2023-10-07T03:57:11.094Z,98213.00
2023-10-07T03:59:38.685Z,98214.97
2023-10-07T04:02:24.279Z,98210.09
2023-10-07T04:05:01.290Z,98207.31
2023-10-07T04:07:32.326Z,98206.44
2023-10-07T04:10:25.359Z,98202.28
2023-10-07T04:12:57.509Z,98196.97
2023-10-07T04:15:30.572Z,98204.72
2023-10-07T04:18:01.077Z,98202.41
2023-10-07T04:20:48.137Z,98203.63
2023-10-07T04:23:22.180Z,98196.72
2023-10-07T04:25:48.958Z,98198.50
2023-10-07T04:28:15.599Z,98199.66
2023-10-07T04:30:48.494Z,98204.00
2023-10-07T04:33:18.963Z,98198.28
2023-10-07T04:35:50.776Z,98198.59
2023-10-07T04:38:40.210Z,98199.16
2023-10-07T04:41:22.720Z,98195.38
2023-10-07T04:44:09.223Z,98192.25
2023-10-07T04:46:44.196Z,98191.69
2023-10-07T04:49:14.325Z,98199.69
2023-10-07T04:51:44.620Z,98205.78
2023-10-07T04:54:12.760Z,98199.31
2023-10-07T04:56:41.068Z,98204.19
2023-10-07T04:59:08.175Z,98200.63
2023-10-07T05:01:35.884Z,98189.03
2023-10-07T05:04:06.479Z,98202.19
2023-10-07T05:06:37.106Z,98203.19
2023-10-07T05:09:10.854Z,98198.91
2023-10-07T05:11:45.039Z,98202.03
2023-10-07T05:14:12.174Z,98205.88
2023-10-07T05:16:39.611Z,98202.47
2023-10-07T05:19:21.001Z,98210.22
2023-10-07T05:22:00.167Z,98212.16
2023-10-07T05:24:30.921Z,98214.50
2023-10-07T05:27:01.293Z,98215.47
2023-10-07T05:29:29.501Z,98217.31
2023-10-07T05:31:57.807Z,98214.81
2023-10-07T05:34:31.658Z,98217.88
2023-10-07T05:37:04.957Z,98218.22
2023-10-07T05:39:33.915Z,98226.75
2023-10-07T05:42:04.522Z,98227.28
2023-10-07T05:44:31.780Z,98226.22
2023-10-07T05:47:00.431Z,98232.28
2023-10-07T05:49:27.197Z,98240.13
2023-10-07T05:51:54.416Z,98233.88
2023-10-07T05:54:21.256Z,98240.41
2023-10-07T05:56:50.717Z,98248.63
2023-10-07T05:59:17.398Z,98245.63
2023-10-07T06:01:44.383Z,98262.81
2023-10-07T06:04:12.900Z,98255.16
2023-10-07T06:06:43.368Z,98252.47
2023-10-07T06:09:15.174Z,98252.19
2023-10-07T06:11:45.836Z,98258.16
2023-10-07T06:14:13.097Z,98258.03
2023-10-07T06:16:41.237Z,98253.19
2023-10-07T06:19:09.107Z,98255.44
2023-10-07T06:21:35.917Z,98259.72
2023-10-07T06:24:08.040Z,98259.22
2023-10-07T06:26:36.551Z,98262.25
2023-10-07T06:29:07.607Z,98257.44
2023-10-07T06:31:34.831Z,98255.22
2023-10-07T06:34:02.166Z,98256.34
2023-10-07T06:36:33.407Z,98258.72
2023-10-07T06:39:02.565Z,98256.00
2023-10-07T06:41:30.997Z,98248.88
2023-10-07T06:44:05.550Z,98251.75
2023-10-07T06:46:42.184Z,98255.84
2023-10-07T06:49:18.297Z,98263.31
2023-10-07T06:51:46.613Z,98253.78
2023-10-07T06:54:15.354Z,98254.50
2023-10-07T06:56:42.031Z,98259.22
2023-10-07T06:59:14.178Z,98254.09
2023-10-07T07:01:40.856Z,98262.03
2023-10-07T07:04:12.781Z,98255.59
2023-10-07T07:06:46.575Z,98263.72
2023-10-07T07:09:36.122Z,98268.94
2023-10-07T07:12:05.785Z,98273.91
2023-10-07T07:14:34.781Z,98283.31
2023-10-07T07:17:35.178Z,98280.41
2023-10-07T07:20:12.367Z,98282.16
2023-10-07T07:22:44.414Z,98274.66
2023-10-07T07:25:27.884Z,98281.81
2023-10-07T07:27:54.621Z,98279.09
2023-10-07T07:30:40.489Z,98272.81
2023-10-07T07:33:09.081Z,98279.44
2023-10-07T07:35:41.207Z,98274.88
2023-10-07T07:38:26.880Z,98272.81
2023-10-07T07:41:07.168Z,98274.97
2023-10-07T07:43:35.505Z,98272.66
2023-10-07T07:46:19.378Z,98277.94
2023-10-07T07:48:46.949Z,98271.06
2023-10-07T07:51:18.032Z,98281.88
2023-10-07T07:53:45.445Z,98274.16
2023-10-07T07:56:14.901Z,98285.94
2023-10-07T07:58:51.004Z,98278.81
2023-10-07T08:01:29.949Z,98275.81
2023-10-07T08:04:00.593Z,98278.88
2023-10-07T08:06:27.611Z,98275.44
2023-10-07T08:08:55.149Z,98258.94
2023-10-07T08:11:22.571Z,98261.00
2023-10-07T08:13:54.391Z,98265.28
2023-10-07T08:16:21.566Z,98274.75
2023-10-07T08:18:55.577Z,98263.03
2023-10-07T08:21:29.803Z,98267.56
2023-10-07T08:24:02.530Z,98260.50
2023-10-07T08:26:29.921Z,98263.31
2023-10-07T08:28:59.394Z,98261.03
2023-10-07T08:31:39.714Z,98261.13
2023-10-07T08:34:10.734Z,98262.75
2023-10-07T08:36:40.166Z,98261.34
2023-10-07T08:39:07.587Z,98260.84
2023-10-07T08:41:34.343Z,98263.72
2023-10-07T08:44:17.075Z,98270.03
2023-10-07T08:46:55.486Z,98264.47
2023-10-07T08:49:27.284Z,98264.13
2023-10-07T08:51:55.878Z,98265.69
2023-10-07T08:54:33.175Z,98259.97
2023-10-07T08:57:10.188Z,98262.72
2023-10-07T08:59:39.143Z,98264.13
2023-10-07T09:02:05.895Z,98266.31
2023-10-07T09:04:33.208Z,98259.59
2023-10-07T09:07:10.156Z,98257.22
2023-10-07T09:09:40.671Z,98259.00
2023-10-07T09:12:29.671Z,98265.38
2023-10-07T09:14:59.230Z,98259.75
2023-10-07T09:17:29.224Z,98264.97
2023-10-07T09:19:59.941Z,98257.47
2023-10-07T09:22:35.685Z,98243.13
2023-10-07T09:25:18.478Z,98263.69
2023-10-07T09:27:55.832Z,98251.16
2023-10-07T09:30:45.780Z,98250.94
2023-10-07T09:33:18.866Z,98252.03
2023-10-07T09:36:11.250Z,98251.53
2023-10-07T09:38:43.090Z,98248.38
2023-10-07T09:41:13.970Z,98256.19
2023-10-07T09:43:53.320Z,98251.94
2023-10-07T09:48:58.671Z,98241.22
2023-10-07T09:51:29.635Z,98242.69
2023-10-07T09:54:03.728Z,98232.56
2023-10-07T09:57:01.088Z,98235.53
2023-10-07T09:59:33.342Z,98232.75
2023-10-07T10:02:27.206Z,98228.31
2023-10-07T10:05:16.084Z,98235.88
2023-10-07T10:08:14.621Z,98234.44
2023-10-07T10:10:46.055Z,98226.56
2023-10-07T10:13:53.412Z,98216.38
2023-10-07T10:16:45.463Z,98220.75
2023-10-07T10:19:19.172Z,98218.75
2023-10-07T10:21:45.938Z,98207.84
2023-10-07T10:24:16.666Z,98200.63
2023-10-07T10:26:45.506Z,98197.69
2023-10-07T10:29:18.350Z,98198.56
2023-10-07T10:31:52.246Z,98200.78
2023-10-07T10:34:21.493Z,98201.41
2023-10-07T10:36:51.002Z,98190.50
2023-10-07T10:39:40.323Z,98181.50
2023-10-07T10:42:11.524Z,98184.13
2023-10-07T10:44:39.623Z,98188.91
2023-10-07T10:47:09.094Z,98186.31
2023-10-07T10:49:36.414Z,98178.44
2023-10-07T10:52:03.966Z,98176.31
2023-10-07T10:54:30.837Z,98164.72
2023-10-07T10:56:59.449Z,98167.63
2023-10-07T10:59:38.197Z,98161.84
2023-10-07T11:02:06.520Z,98158.13
2023-10-07T11:04:33.408Z,98155.00
2023-10-07T11:07:01.208Z,98141.91
2023-10-07T11:09:36.978Z,98139.41
2023-10-07T11:12:11.217Z,98131.38
2023-10-07T11:14:39.679Z,98133.94
2023-10-07T11:17:07.199Z,98130.63
2023-10-07T11:19:41.642Z,98127.78
2023-10-07T11:22:08.405Z,98118.66
2023-10-07T11:24:36.380Z,98122.53
2023-10-07T11:27:03.984Z,98121.56
2023-10-07T11:29:33.709Z,98122.34
2023-10-07T11:32:02.260Z,98117.56
2023-10-07T11:34:34.368Z,98106.34
2023-10-07T11:37:10.253Z,98104.63
2023-10-07T11:39:44.327Z,98111.63
2023-10-07T11:42:16.361Z,98103.28
2023-10-07T11:44:47.317Z,98101.97
2023-10-07T11:47:17.769Z,98099.56
2023-10-07T11:49:48.380Z,98091.06
2023-10-07T11:52:18.976Z,98087.44
2023-10-07T11:54:49.729Z,98090.91
2023-10-07T11:57:21.282Z,98078.53
2023-10-07T11:59:47.909Z,98080.25
2023-10-07T12:02:16.602Z,98070.53
2023-10-07T12:04:48.716Z,98066.88
2023-10-07T12:07:17.508Z,98071.22
2023-10-07T12:09:52.222Z,98077.50
2023-10-07T12:12:19.125Z,98073.44
2023-10-07T12:14:47.463Z,98070.41
2023-10-07T12:17:15.755Z,98071.16
2023-10-07T12:19:42.584Z,98062.16
2023-10-07T12:22:09.855Z,98060.41
2023-10-07T12:24:38.564Z,98057.31
2023-10-07T12:27:07.884Z,98058.22
2023-10-07T12:29:35.154Z,98051.94
2023-10-07T12:32:02.016Z,98055.53
2023-10-07T12:34:31.395Z,98055.22
2023-10-07T12:36:58.036Z,98049.75
2023-10-07T12:39:24.737Z,98049.25
2023-10-07T12:41:51.355Z,98054.47
2023-10-07T12:44:18.210Z,98049.78
2023-10-07T12:46:45.421Z,98048.91
2023-10-07T12:49:15.299Z,98038.03
2023-10-07T12:51:43.798Z,98047.38
2023-10-07T12:54:11.372Z,98036.25
2023-10-07T12:56:49.271Z,98050.56
2023-10-07T12:59:19.508Z,98037.16
2023-10-07T13:01:51.848Z,98041.72
2023-10-07T13:04:20.668Z,98035.94
2023-10-07T13:06:49.963Z,98025.72
2023-10-07T13:09:19.208Z,98032.09
2023-10-07T13:11:46.977Z,98027.31
2023-10-07T13:14:14.195Z,98022.84
2023-10-07T13:16:46.609Z,98015.19
2023-10-07T13:19:15.166Z,98022.56
2023-10-07T13:21:42.927Z,98017.13
2023-10-07T13:24:12.835Z,98012.41
2023-10-07T13:26:39.977Z,98014.78
2023-10-07T13:29:11.658Z,98004.81
2023-10-07T13:31:41.822Z,98009.50
2023-10-07T13:34:08.763Z,98015.97
2023-10-07T13:36:40.170Z,97999.94
2023-10-07T13:39:16.645Z,97992.16
2023-10-07T13:41:48.190Z,97994.28
2023-10-07T13:44:18.329Z,97997.47
2023-10-07T13:46:46.586Z,98000.88
2023-10-07T13:49:16.898Z,97994.44
2023-10-07T13:51:45.812Z,97993.84
2023-10-07T13:54:23.443Z,97994.88
2023-10-07T13:56:58.577Z,97990.06
2023-10-07T13:59:26.092Z,98001.06
2023-10-07T14:01:53.901Z,97998.00
2023-10-07T14:04:21.230Z,97994.97
2023-10-07T14:06:49.025Z,98010.44
2023-10-07T14:09:25.480Z,97997.50
2023-10-07T14:11:58.281Z,97994.53
2023-10-07T14:14:28.650Z,97993.97
2023-10-07T14:16:59.701Z,97986.44
2023-10-07T14:19:28.182Z,97987.25
2023-10-07T14:21:54.868Z,97992.13
2023-10-07T14:24:29.210Z,97981.38
2023-10-07T14:26:57.440Z,97988.59
2023-10-07T14:29:24.290Z,97987.88
2023-10-07T14:31:53.145Z,97981.78
2023-10-07T14:34:19.931Z,97981.94
2023-10-07T14:36:47.087Z,97990.31
2023-10-07T14:39:14.213Z,97977.59
2023-10-07T14:41:42.746Z,97987.81
2023-10-07T14:44:10.225Z,97981.44
2023-10-07T14:46:43.626Z,97976.59
2023-10-07T14:49:11.578Z,97984.78
2023-10-07T14:51:38.624Z,97981.91
2023-10-07T14:54:05.559Z,97974.91
2023-10-07T14:56:32.243Z,97980.28
2023-10-07T14:59:00.962Z,97972.63
2023-10-07T15:01:28.948Z,97981.59
2023-10-07T15:03:56.415Z,97987.09
2023-10-07T15:06:23.814Z,97990.34
2023-10-07T15:08:51.438Z,97986.19
2023-10-07T15:11:19.744Z,97982.72
2023-10-07T15:13:47.100Z,97995.25
2023-10-07T15:16:14.040Z,97987.16
2023-10-07T15:18:42.533Z,97986.91
2023-10-07T15:21:12.917Z,97986.97
2023-10-07T15:23:40.553Z,97991.41
2023-10-07T15:26:14.063Z,97992.63
2023-10-07T15:28:40.978Z,97990.91
2023-10-07T15:31:09.405Z,97993.44
2023-10-07T15:33:53.758Z,97991.97
2023-10-07T15:36:20.467Z,98001.94
2023-10-07T15:38:50.159Z,98002.28
2023-10-07T15:41:17.735Z,98005.97
2023-10-07T15:43:44.621Z,98004.75
2023-10-07T15:46:11.455Z,97999.34
2023-10-07T15:48:38.160Z,98001.63
2023-10-07T15:51:07.606Z,98003.78
2023-10-07T15:53:34.810Z,97998.88
2023-10-07T15:56:07.795Z,98015.00
2023-10-07T15:58:35.137Z,98016.28
2023-10-07T16:01:04.685Z,98018.56
2023-10-07T16:03:34.348Z,98017.44
2023-10-07T16:06:01.456Z,98020.91
2023-10-07T16:08:28.308Z,98021.38
2023-10-07T16:10:55.054Z,98022.03
2023-10-07T16:13:21.806Z,98027.47
2023-10-07T16:15:48.453Z,98014.41
2023-10-07T16:18:15.141Z,98006.03
2023-10-07T16:20:42.573Z,98014.50
2023-10-07T16:23:09.923Z,98009.84
2023-10-07T16:25:36.622Z,98023.53
2023-10-07T16:28:06.012Z,98021.44
2023-10-07T16:30:32.847Z,98021.69
2023-10-07T16:32:59.574Z,98036.25
2023-10-07T16:35:26.314Z,98036.66
2023-10-07T16:37:53.212Z,98036.47
2023-10-07T16:40:20.155Z,98038.97
2023-10-07T16:42:47.166Z,98033.47
2023-10-07T16:45:14.216Z,98038.44
2023-10-07T16:47:41.370Z,98038.88
2023-10-07T16:50:10.127Z,98034.72
2023-10-07T16:52:37.761Z,98036.44
2023-10-07T16:55:07.673Z,98029.72
2023-10-07T16:57:38.290Z,98029.69
2023-10-07T17:00:06.775Z,98030.47
2023-10-07T17:02:34.558Z,98033.03
2023-10-07T17:05:02.653Z,98026.72
2023-10-07T17:07:29.393Z,98035.56
2023-10-07T17:09:56.984Z,98036.81
2023-10-07T17:12:24.987Z,98037.03
2023-10-07T17:14:51.767Z,98041.88
2023-10-07T17:17:18.666Z,98033.06
2023-10-07T17:19:45.435Z,98043.13
2023-10-07T17:22:12.945Z,98040.38
2023-10-07T17:24:43.943Z,98034.28
2023-10-07T17:27:11.820Z,98046.81
2023-10-07T17:29:40.157Z,98043.91
2023-10-07T17:32:07.322Z,98045.22
2023-10-07T17:34:34.449Z,98047.34
2023-10-07T17:37:02.523Z,98051.91
2023-10-07T17:39:33.107Z,98056.75
2023-10-07T17:42:01.899Z,98047.00
2023-10-07T17:44:28.791Z,98050.16
2023-10-07T17:46:56.952Z,98052.91
2023-10-07T17:49:24.289Z,98056.63
2023-10-07T17:51:50.961Z,98058.59
2023-10-07T17:54:17.721Z,98054.34
2023-10-07T17:56:45.389Z,98046.03
2023-10-07T17:59:12.918Z,98053.91
2023-10-07T18:01:39.833Z,98048.41
2023-10-07T18:04:06.822Z,98037.03
2023-10-07T18:06:33.591Z,98042.53
2023-10-07T18:09:00.255Z,98053.00
2023-10-07T18:11:27.035Z,98049.63
2023-10-07T18:13:53.764Z,98044.50
2023-10-07T18:16:20.614Z,98045.31
2023-10-07T18:18:47.280Z,98051.13
2023-10-07T18:21:13.867Z,98055.66
2023-10-07T18:23:40.655Z,98056.91
2023-10-07T18:26:07.576Z,98061.00
2023-10-07T18:28:34.250Z,98060.78
2023-10-07T18:31:02.462Z,98064.69
2023-10-07T18:33:30.039Z,98062.00
2023-10-07T18:35:57.742Z,98068.66
2023-10-07T18:38:24.458Z,98077.31
2023-10-07T18:40:52.358Z,98074.69
2023-10-07T18:43:19.286Z,98077.88
2023-10-07T18:45:45.898Z,98073.59
2023-10-07T18:48:13.212Z,98064.47
2023-10-07T18:50:40.117Z,98068.38
2023-10-07T18:53:06.943Z,98073.22
2023-10-07T18:55:34.031Z,98073.69
2023-10-07T18:58:08.951Z,98067.88
2023-10-07T19:00:36.363Z,98062.72
2023-10-07T19:03:03.215Z,98057.53
2023-10-07T19:05:30.481Z,98060.53
2023-10-07T19:07:57.517Z,98058.84
2023-10-07T19:10:26.445Z,98065.56
2023-10-07T19:12:53.171Z,98063.81
2023-10-07T19:15:19.859Z,98064.78
2023-10-07T19:17:47.801Z,98065.25
2023-10-07T19:20:15.038Z,98067.13
2023-10-07T19:22:43.051Z,98066.06
2023-10-07T19:25:15.319Z,98066.97
2023-10-07T19:27:42.372Z,98065.81
2023-10-07T19:30:11.465Z,98065.28
2023-10-07T19:32:42.482Z,98071.81
2023-10-07T19:35:10.083Z,98069.78
2023-10-07T19:37:36.945Z,98061.09
2023-10-07T19:40:05.422Z,98061.19
2023-10-07T19:42:32.173Z,98057.78
2023-10-07T19:44:58.869Z,98065.50
2023-10-07T19:47:25.709Z,98066.84
2023-10-07T19:49:52.757Z,98057.63
2023-10-07T19:52:19.419Z,98054.47
2023-10-07T19:54:46.093Z,98059.56
2023-10-07T19:57:13.457Z,98057.63
2023-10-07T19:59:40.263Z,98065.16
2023-10-07T20:02:07.094Z,98060.09
2023-10-07T20:04:33.887Z,98069.28
2023-10-07T20:07:00.613Z,98067.38
2023-10-07T20:09:27.340Z,98061.75
2023-10-07T20:11:54.035Z,98063.47
2023-10-07T20:14:20.705Z,98057.38
2023-10-07T20:16:47.489Z,98061.91
2023-10-07T20:19:15.338Z,98065.63
2023-10-07T20:21:42.601Z,98066.50
2023-10-07T20:24:10.064Z,98061.56
2023-10-07T20:26:38.616Z,98052.44
2023-10-07T20:29:05.395Z,98060.88
2023-10-07T20:31:32.057Z,98055.59
2023-10-07T20:33:58.672Z,98058.75
2023-10-07T20:36:25.300Z,98066.50
2023-10-07T20:38:54.801Z,98058.03
2023-10-07T20:41:21.706Z,98051.06
2023-10-07T20:43:48.284Z,98060.97
2023-10-07T20:46:15.135Z,98054.13
2023-10-07T20:48:42.255Z,98052.03
2023-10-07T20:51:11.700Z,98051.72
2023-10-07T20:53:40.671Z,98053.97
2023-10-07T20:56:09.021Z,98062.06
2023-10-07T20:58:36.198Z,98058.56
2023-10-07T21:01:07.007Z,98063.72
2023-10-07T21:03:33.999Z,98070.00
2023-10-07T21:06:03.387Z,98069.19
2023-10-07T21:08:30.380Z,98065.34
2023-10-07T21:10:57.121Z,98062.44
2023-10-07T21:13:23.747Z,98063.50
2023-10-07T21:15:50.441Z,98062.38
2023-10-07T21:18:17.100Z,98054.88
2023-10-07T21:20:44.638Z,98049.44
2023-10-07T21:23:14.967Z,98049.44
2023-10-07T21:25:47.094Z,98044.34
2023-10-07T21:28:15.790Z,98045.19
2023-10-07T21:30:49.812Z,98040.88
2023-10-07T21:33:17.887Z,98042.16
2023-10-07T21:35:45.654Z,98045.25
2023-10-07T21:38:13.840Z,98049.47
2023-10-07T21:40:42.924Z,98050.09
2023-10-07T21:43:11.144Z,98038.84
2023-10-07T21:45:38.393Z,98041.66
2023-10-07T21:48:06.527Z,98040.34
2023-10-07T21:50:34.793Z,98045.66
2023-10-07T21:53:05.512Z,98041.03
2023-10-07T21:55:34.070Z,98034.44
2023-10-07T21:58:02.005Z,98038.19
2023-10-07T22:00:28.848Z,98027.56
2023-10-07T22:02:56.968Z,98044.78
2023-10-07T22:05:26.974Z,98030.69
2023-10-07T22:07:54.811Z,98033.22
2023-10-07T22:10:33.053Z,98023.34
2023-10-07T22:13:01.622Z,98018.91
2023-10-07T22:15:28.319Z,98013.41
2023-10-07T22:17:57.279Z,98014.22
2023-10-07T22:20:24.220Z,98012.53
2023-10-07T22:22:52.611Z,98021.31
2023-10-07T22:25:19.611Z,98024.50
2023-10-07T22:27:47.831Z,98010.72
2023-10-07T22:30:18.749Z,98000.44
2023-10-07T22:32:46.860Z,98002.53
2023-10-07T22:35:23.696Z,97993.53
2023-10-07T22:37:59.021Z,97992.47
2023-10-07T22:40:32.993Z,97984.31
2023-10-07T22:43:00.347Z,97977.13
2023-10-07T22:45:51.143Z,97972.06
2023-10-07T22:48:20.641Z,97970.34
2023-10-07T22:51:10.364Z,97958.63
2023-10-07T22:53:45.488Z,97960.47
2023-10-07T22:56:20.914Z,97957.56
2023-10-07T22:58:49.586Z,97956.00
2023-10-07T23:01:40.852Z,97961.91
2023-10-07T23:04:22.839Z,97953.38
2023-10-07T23:06:57.442Z,97950.00
2023-10-07T23:09:30.292Z,97943.63
2023-10-07T23:11:57.037Z,97934.72
2023-10-07T23:14:23.990Z,97943.78
2023-10-07T23:16:53.113Z,97925.91
2023-10-07T23:19:19.947Z,97928.56
2023-10-07T23:22:01.096Z,97939.03
2023-10-07T23:24:39.892Z,97941.47
2023-10-07T23:27:09.225Z,97943.16
2023-10-07T23:29:45.433Z,97941.34
2023-10-07T23:32:20.013Z,97938.66
2023-10-07T23:34:46.804Z,97944.38
2023-10-07T23:37:17.682Z,97941.72
2023-10-07T23:39:49.506Z,97931.75
2023-10-07T23:42:23.833Z,97930.84
2023-10-07T23:44:54.296Z,97932.72
2023-10-07T23:47:24.076Z,97926.56
2023-10-07T23:49:58.765Z,97928.78
2023-10-07T23:52:27.200Z,97934.09
2023-10-07T23:54:59.441Z,97937.00
2023-10-07T23:57:30.930Z,97934.09
2023-10-07T23:59:58.779Z,97941.22
